createdAt,value
2022-09-04T00:00:07.967Z,19.10
2022-09-04T00:02:49.450Z,19.10
2022-09-04T00:05:23.090Z,19.10
2022-09-04T00:08:04.676Z,19.10
2022-09-04T00:10:38.005Z,19.10
2022-09-04T00:13:12.024Z,19.10
2022-09-04T00:15:47.420Z,19.00
2022-09-04T00:18:27.676Z,19.00
2022-09-04T00:21:03.500Z,19.00
2022-09-04T00:23:38.600Z,19.00
2022-09-04T00:26:14.375Z,19.00
2022-09-04T00:28:49.166Z,18.90
2022-09-04T00:31:26.866Z,18.90
2022-09-04T00:34:07.353Z,18.90
2022-09-04T00:36:39.062Z,18.90
2022-09-04T00:39:14.027Z,18.90
2022-09-04T00:41:55.864Z,18.80
2022-09-04T00:44:48.951Z,18.80
2022-09-04T00:47:51.430Z,18.80
2022-09-04T00:50:40.186Z,18.70
2022-09-04T00:53:36.345Z,18.70
2022-09-04T00:56:25.199Z,18.60
2022-09-04T00:59:06.620Z,18.60
2022-09-04T01:01:36.684Z,18.60
2022-09-04T01:04:24.564Z,18.60
2022-09-04T01:07:09.133Z,18.60
2022-09-04T01:10:04.488Z,18.50
2022-09-04T01:12:40.269Z,18.50
2022-09-04T01:15:16.290Z,18.50
2022-09-04T01:17:59.521Z,18.50
2022-09-04T01:20:45.564Z,18.50
2022-09-04T01:23:42.103Z,18.50
2022-09-04T01:26:16.988Z,18.50
2022-09-04T01:29:00.235Z,18.50
2022-09-04T01:31:37.192Z,18.50
2022-09-04T01:34:18.527Z,18.50
2022-09-04T01:36:54.452Z,18.50
2022-09-04T01:39:26.117Z,18.50
2022-09-04T01:42:01.962Z,18.40
2022-09-04T01:44:34.045Z,18.40
2022-09-04T01:47:16.161Z,18.40
2022-09-04T01:49:51.463Z,18.40
2022-09-04T01:52:37.124Z,18.40
2022-09-04T01:55:14.852Z,18.40
2022-09-04T01:58:04.162Z,18.40
2022-09-04T02:00:38.284Z,18.40
2022-09-04T02:03:16.126Z,18.30
2022-09-04T02:05:54.979Z,18.40
2022-09-04T02:08:33.296Z,18.30
2022-09-04T02:11:08.827Z,18.30
2022-09-04T02:13:45.980Z,18.30
2022-09-04T02:16:22.143Z,18.30
2022-09-04T02:19:00.574Z,18.30
2022-09-04T02:21:34.088Z,18.30
2022-09-04T02:24:14.574Z,18.30
2022-09-04T02:26:48.678Z,18.30
2022-09-04T02:29:29.102Z,18.20
2022-09-04T02:32:07.409Z,18.30
2022-09-04T02:34:45.553Z,18.30
2022-09-04T02:37:20.583Z,18.20
2022-09-04T02:40:02.453Z,18.20
2022-09-04T02:42:41.617Z,18.20
2022-09-04T02:45:21.876Z,18.20
2022-09-04T02:47:58.223Z,18.20
2022-09-04T02:50:46.176Z,18.20
2022-09-04T02:53:27.169Z,18.20
2022-09-04T02:56:10.505Z,18.20
2022-09-04T02:58:50.932Z,18.10
2022-09-04T03:01:27.232Z,18.20
2022-09-04T03:04:04.241Z,18.10
2022-09-04T03:06:49.348Z,18.10
2022-09-04T03:09:23.295Z,18.10
2022-09-04T03:11:57.265Z,18.10
2022-09-04T03:14:34.314Z,18.00
2022-09-04T03:17:13.176Z,18.00
2022-09-04T03:19:47.738Z,18.00
2022-09-04T03:22:20.764Z,17.90
2022-09-04T03:25:06.958Z,17.90
2022-09-04T03:27:36.383Z,17.90
2022-09-04T03:30:08.352Z,17.90
2022-09-04T03:32:46.271Z,17.90
2022-09-04T03:35:22.124Z,17.80
2022-09-04T03:38:14.997Z,17.80
2022-09-04T03:40:45.927Z,17.80
2022-09-04T03:43:42.699Z,17.80
2022-09-04T03:46:23.870Z,17.70
2022-09-04T03:49:08.533Z,17.70
2022-09-04T03:51:46.603Z,17.60
2022-09-04T03:54:38.520Z,17.60
2022-09-04T03:57:23.134Z,17.60
2022-09-04T04:00:03.979Z,17.60
2022-09-04T04:02:46.146Z,17.60
2022-09-04T04:05:25.960Z,17.60
2022-09-04T04:08:21.546Z,17.60
2022-09-04T04:10:59.854Z,17.60
2022-09-04T04:13:58.652Z,17.60
2022-09-04T04:16:40.905Z,17.60
2022-09-04T04:19:35.789Z,17.60
2022-09-04T04:22:35.167Z,17.60
2022-09-04T04:25:25.142Z,17.60
2022-09-04T04:28:20.177Z,17.60
2022-09-04T04:30:52.342Z,17.60
2022-09-04T04:33:42.402Z,17.50
2022-09-04T04:36:21.355Z,17.50
2022-09-04T04:39:02.850Z,17.50
2022-09-04T04:42:05.998Z,17.50
2022-09-04T04:45:15.271Z,17.50
2022-09-04T04:48:08.071Z,17.50
2022-09-04T04:50:43.709Z,17.50
2022-09-04T04:53:20.330Z,17.40
2022-09-04T04:55:56.700Z,17.40
2022-09-04T04:58:53.938Z,17.50
2022-09-04T05:01:35.229Z,17.40
2022-09-04T05:04:14.047Z,17.40
2022-09-04T05:06:50.343Z,17.40
2022-09-04T05:09:22.929Z,17.40
2022-09-04T05:11:57.956Z,17.40
2022-09-04T05:14:42.681Z,17.40
2022-09-04T05:17:21.577Z,17.40
2022-09-04T05:20:00.189Z,17.40
2022-09-04T05:22:37.586Z,17.40
2022-09-04T05:25:14.550Z,17.40
2022-09-04T05:27:58.753Z,17.40
2022-09-04T05:30:37.974Z,17.50
2022-09-04T05:33:16.292Z,17.50
2022-09-04T05:35:51.297Z,17.40
2022-09-04T05:38:29.352Z,17.40
2022-09-04T05:41:07.080Z,17.40
2022-09-04T05:43:49.750Z,17.40
2022-09-04T05:46:31.142Z,17.40
2022-09-04T05:49:04.010Z,17.40
2022-09-04T05:52:03.872Z,17.50
2022-09-04T05:55:14.315Z,17.50
2022-09-04T05:58:11.835Z,17.50
2022-09-04T06:00:48.230Z,17.60
2022-09-04T06:03:55.858Z,17.60
2022-09-04T06:06:33.676Z,17.60
2022-09-04T06:09:27.457Z,17.60
2022-09-04T06:12:29.210Z,17.60
2022-09-04T06:15:13.285Z,17.60
2022-09-04T06:18:19.502Z,17.70
2022-09-04T06:21:13.838Z,17.70
2022-09-04T06:24:16.461Z,17.80
2022-09-04T06:27:06.827Z,17.80
2022-09-04T06:30:03.049Z,17.90
2022-09-04T06:33:01.117Z,17.90
2022-09-04T06:35:45.445Z,18.10
2022-09-04T06:38:34.767Z,18.10
2022-09-04T06:41:33.093Z,18.20
2022-09-04T06:44:08.899Z,18.30
2022-09-04T06:46:43.742Z,18.40
2022-09-04T06:49:19.015Z,18.40
2022-09-04T06:51:58.906Z,18.50
2022-09-04T06:54:41.955Z,18.50
2022-09-04T06:57:35.223Z,18.60
2022-09-04T07:00:09.144Z,18.70
2022-09-04T07:03:02.873Z,18.70
2022-09-04T07:05:34.833Z,18.80
2022-09-04T07:08:14.045Z,18.80
2022-09-04T07:10:47.606Z,18.90
2022-09-04T07:13:44.684Z,18.90
2022-09-04T07:16:31.717Z,19.00
2022-09-04T07:19:52.935Z,19.20
2022-09-04T07:22:36.617Z,19.40
2022-09-04T07:25:19.016Z,19.50
2022-09-04T07:28:11.682Z,19.70
2022-09-04T07:30:45.398Z,19.80
2022-09-04T07:33:20.258Z,20.00
2022-09-04T07:35:57.815Z,20.20
2022-09-04T07:38:35.513Z,20.40
2022-09-04T07:41:17.560Z,20.60
2022-09-04T07:43:54.797Z,20.80
2022-09-04T07:46:33.324Z,20.90
2022-09-04T07:49:09.996Z,21.10
2022-09-04T07:51:44.060Z,21.30
2022-09-04T07:54:49.385Z,21.40
2022-09-04T07:57:55.789Z,21.60
2022-09-04T08:00:25.420Z,21.70
2022-09-04T08:03:21.926Z,21.70
2022-09-04T08:05:54.961Z,21.70
2022-09-04T08:08:58.601Z,21.70
2022-09-04T08:11:59.346Z,21.70
2022-09-04T08:14:42.462Z,21.70
2022-09-04T08:18:01.546Z,21.70
2022-09-04T08:20:53.101Z,21.60
2022-09-04T08:23:56.303Z,21.60
2022-09-04T08:26:33.981Z,21.60
2022-09-04T08:29:16.992Z,21.70
2022-09-04T08:32:04.458Z,21.70
2022-09-04T08:34:46.228Z,21.70
2022-09-04T08:37:25.936Z,21.80
2022-09-04T08:40:14.834Z,21.90
2022-09-04T08:43:06.508Z,22.00
2022-09-04T08:46:19.724Z,22.00
2022-09-04T08:49:34.166Z,22.10
2022-09-04T08:52:36.453Z,22.10
2022-09-04T08:55:47.096Z,22.20
2022-09-04T08:58:54.181Z,22.30
2022-09-04T09:01:48.582Z,22.40
2022-09-04T09:04:41.685Z,22.40
2022-09-04T09:07:48.281Z,22.40
2022-09-04T09:10:38.733Z,22.50
2022-09-04T09:13:40.964Z,22.50
2022-09-04T09:16:21.425Z,22.50
2022-09-04T09:19:07.954Z,22.50
2022-09-04T09:21:41.246Z,22.60
2022-09-04T09:24:30.490Z,22.60
2022-09-04T09:27:09.124Z,22.60
2022-09-04T09:29:43.769Z,22.60
2022-09-04T09:32:31.337Z,22.60
2022-09-04T09:35:22.107Z,22.60
2022-09-04T09:38:07.672Z,22.60
2022-09-04T09:40:57.816Z,22.60
2022-09-04T09:43:54.646Z,22.60
2022-09-04T09:47:01.715Z,22.60
2022-09-04T09:50:01.291Z,22.60
2022-09-04T09:52:58.305Z,22.50
2022-09-04T09:55:54.408Z,22.50
2022-09-04T09:58:53.120Z,22.50
2022-09-04T10:01:58.816Z,22.50
2022-09-04T10:05:06.252Z,22.60
2022-09-04T10:08:15.929Z,22.60
2022-09-04T10:11:10.083Z,22.70
2022-09-04T10:14:06.764Z,22.70
2022-09-04T10:17:11.589Z,22.80
2022-09-04T10:20:29.414Z,22.80
2022-09-04T10:23:32.678Z,22.80
2022-09-04T10:26:38.264Z,22.80
2022-09-04T10:29:37.932Z,22.70
2022-09-04T10:32:33.233Z,22.70
2022-09-04T10:35:34.152Z,22.60
2022-09-04T10:38:22.891Z,22.60
2022-09-04T10:41:20.930Z,22.60
2022-09-04T10:44:18.494Z,22.50
2022-09-04T10:46:59.157Z,22.50
2022-09-04T10:49:59.677Z,22.50
2022-09-04T10:52:57.767Z,22.50
2022-09-04T10:55:42.407Z,22.50
2022-09-04T10:58:39.901Z,22.50
2022-09-04T11:01:42.597Z,22.50
2022-09-04T11:04:36.465Z,22.50
2022-09-04T11:07:44.834Z,22.50
2022-09-04T11:10:42.235Z,22.50
2022-09-04T11:13:42.802Z,22.50
2022-09-04T11:16:48.895Z,22.50
2022-09-04T11:20:08.010Z,22.50
2022-09-04T11:23:20.558Z,22.60
2022-09-04T11:26:23.918Z,22.60
2022-09-04T11:29:19.249Z,22.60
2022-09-04T11:32:21.118Z,22.60
2022-09-04T11:35:14.196Z,22.60
2022-09-04T11:38:08.462Z,22.60
2022-09-04T11:41:29.099Z,22.70
2022-09-04T11:44:38.332Z,22.70
2022-09-04T11:47:50.568Z,22.80
2022-09-04T11:50:40.549Z,22.90
2022-09-04T11:53:37.557Z,22.90
2022-09-04T11:56:38.247Z,22.90
2022-09-04T11:59:22.171Z,22.90
2022-09-04T12:02:07.475Z,22.90
2022-09-04T12:04:49.363Z,22.90
2022-09-04T12:07:42.565Z,23.00
2022-09-04T12:10:32.534Z,23.00
2022-09-04T12:13:40.103Z,23.00
2022-09-04T12:16:44.449Z,23.10
2022-09-04T12:19:58.565Z,23.10
2022-09-04T12:22:50.178Z,23.10
2022-09-04T12:25:43.673Z,23.10
2022-09-04T12:28:56.444Z,23.10
2022-09-04T12:31:40.454Z,23.20
2022-09-04T12:34:24.021Z,23.20
2022-09-04T12:37:33.788Z,23.20
2022-09-04T12:40:41.685Z,23.20
2022-09-04T12:43:24.388Z,23.20
2022-09-04T12:46:05.918Z,23.20
2022-09-04T12:48:42.311Z,23.20
2022-09-04T12:51:16.598Z,23.20
2022-09-04T12:54:14.160Z,23.30
2022-09-04T12:56:49.559Z,23.30
2022-09-04T12:59:37.135Z,23.30
2022-09-04T13:02:14.121Z,23.30
2022-09-04T13:04:57.341Z,23.30
2022-09-04T13:07:35.643Z,23.30
2022-09-04T13:10:16.636Z,23.30
2022-09-04T13:12:55.478Z,23.30
2022-09-04T13:15:34.717Z,23.30
2022-09-04T13:18:18.245Z,23.30
2022-09-04T13:20:53.355Z,23.40
2022-09-04T13:23:39.083Z,23.40
2022-09-04T13:26:29.697Z,23.50
2022-09-04T13:29:15.977Z,23.50
2022-09-04T13:32:08.604Z,23.50
2022-09-04T13:34:53.820Z,23.60
2022-09-04T13:37:29.220Z,23.60
2022-09-04T13:40:13.225Z,23.60
2022-09-04T13:43:22.060Z,23.70
2022-09-04T13:45:55.536Z,23.80
2022-09-04T13:48:38.316Z,23.80
2022-09-04T13:51:13.356Z,23.90
2022-09-04T13:54:02.520Z,24.00
2022-09-04T13:56:35.596Z,24.10
2022-09-04T13:59:09.598Z,24.20
2022-09-04T14:01:46.091Z,24.30
2022-09-04T14:04:19.339Z,24.30
2022-09-04T14:06:48.964Z,24.30
2022-09-04T14:09:17.618Z,24.30
2022-09-04T14:12:31.553Z,24.30
2022-09-04T14:15:30.731Z,24.30
2022-09-04T14:18:13.427Z,24.30
2022-09-04T14:20:51.354Z,24.30
2022-09-04T14:23:25.303Z,24.20
2022-09-04T14:26:00.675Z,24.20
2022-09-04T14:28:37.921Z,24.20
2022-09-04T14:31:13.628Z,24.20
2022-09-04T14:33:53.490Z,24.30
2022-09-04T14:36:34.436Z,24.20
2022-09-04T14:39:16.464Z,24.30
2022-09-04T14:42:16.196Z,24.20
2022-09-04T14:45:01.949Z,24.20
2022-09-04T14:47:39.876Z,24.20
2022-09-04T14:50:13.122Z,24.20
2022-09-04T14:52:44.580Z,24.20
2022-09-04T14:55:17.776Z,24.20
2022-09-04T14:57:51.491Z,24.20
2022-09-04T15:00:21.003Z,24.20
2022-09-04T15:02:57.843Z,24.20
2022-09-04T15:05:32.013Z,24.20
2022-09-04T15:08:02.406Z,24.20
2022-09-04T15:10:49.860Z,24.20
2022-09-04T15:13:40.654Z,24.20
2022-09-04T15:16:22.628Z,24.30
2022-09-04T15:18:58.933Z,24.30
2022-09-04T15:21:39.728Z,24.30
2022-09-04T15:24:17.448Z,24.30
2022-09-04T15:26:51.796Z,24.30
2022-09-04T15:29:25.856Z,24.30
2022-09-04T15:32:01.485Z,24.20
2022-09-04T15:34:31.020Z,24.20
2022-09-04T15:37:14.365Z,24.20
2022-09-04T15:39:53.852Z,24.20
2022-09-04T15:42:36.102Z,24.20
2022-09-04T15:45:11.232Z,24.20
2022-09-04T15:48:09.006Z,24.20
2022-09-04T15:50:41.286Z,24.20
2022-09-04T15:53:26.799Z,24.20
2022-09-04T15:56:09.377Z,24.20
2022-09-04T15:58:53.263Z,24.20
2022-09-04T16:01:26.825Z,24.20
2022-09-04T16:04:07.330Z,24.20
2022-09-04T16:06:45.435Z,24.20
2022-09-04T16:09:24.026Z,24.20
2022-09-04T16:12:00.699Z,24.20
2022-09-04T16:14:36.184Z,24.20
2022-09-04T16:17:14.866Z,24.20
2022-09-04T16:19:49.978Z,24.20
2022-09-04T16:22:34.975Z,24.20
2022-09-04T16:25:11.046Z,24.20
2022-09-04T16:27:46.422Z,24.20
2022-09-04T16:30:30.093Z,24.20
2022-09-04T16:32:58.967Z,24.20
2022-09-04T16:35:28.950Z,24.20
2022-09-04T16:38:06.173Z,24.20
2022-09-04T16:40:39.051Z,24.20
2022-09-04T16:43:18.794Z,24.20
2022-09-04T16:45:51.653Z,24.20
2022-09-04T16:48:35.079Z,24.20
2022-09-04T16:51:39.831Z,24.10
2022-09-04T16:54:13.366Z,24.20
2022-09-04T16:56:50.083Z,24.20
2022-09-04T16:59:27.623Z,24.10
2022-09-04T17:02:02.017Z,24.10
2022-09-04T17:04:40.009Z,24.10
2022-09-04T17:07:18.458Z,24.10
2022-09-04T17:09:55.875Z,24.10
2022-09-04T17:12:38.972Z,24.10
2022-09-04T17:15:16.204Z,24.10
2022-09-04T17:17:47.119Z,24.10
2022-09-04T17:20:29.172Z,24.00
2022-09-04T17:28:59.980Z,24.00
2022-09-04T17:29:18.804Z,24.00
2022-09-04T17:29:36.054Z,24.00
2022-09-04T17:32:33.620Z,23.90
2022-09-04T17:40:00.443Z,23.90
2022-09-04T17:40:53.606Z,23.90
2022-09-04T17:41:31.169Z,23.90
2022-09-04T17:44:02.295Z,23.90
2022-09-04T17:46:37.392Z,23.90
2022-09-04T17:49:20.029Z,23.80
2022-09-04T17:51:57.876Z,23.80
2022-09-04T17:54:28.799Z,23.80
2022-09-04T17:57:00.619Z,23.70
2022-09-04T17:59:36.421Z,23.70
2022-09-04T18:02:14.118Z,23.70
2022-09-04T18:04:47.261Z,23.60
2022-09-04T18:08:07.195Z,23.60
2022-09-04T18:10:21.039Z,23.50
2022-09-04T18:12:58.305Z,23.50
2022-09-04T18:15:35.266Z,23.40
2022-09-04T18:18:13.208Z,23.40
2022-09-04T18:20:46.134Z,23.40
2022-09-04T18:23:46.379Z,23.30
2022-09-04T18:26:38.505Z,23.30
2022-09-04T18:31:09.933Z,23.20
2022-09-04T18:37:10.424Z,23.20
2022-09-04T18:37:24.170Z,23.10
2022-09-04T18:38:22.811Z,23.00
2022-09-04T18:44:25.835Z,23.00
2022-09-04T18:50:29.677Z,23.00
2022-09-04T18:50:50.180Z,22.90
2022-09-04T18:50:51.000Z,22.90
2022-09-04T18:52:33.523Z,22.90
2022-09-04T18:55:08.230Z,22.80
2022-09-04T18:57:49.040Z,22.80
2022-09-04T19:00:25.976Z,22.80
2022-09-04T19:03:08.659Z,22.80
2022-09-04T19:05:45.102Z,22.70
2022-09-04T19:08:20.462Z,22.70
2022-09-04T19:10:53.636Z,22.70
2022-09-04T19:13:27.557Z,22.60
2022-09-04T19:16:05.861Z,22.60
2022-09-04T19:18:48.002Z,22.50
2022-09-04T19:21:33.840Z,22.50
2022-09-04T19:24:26.014Z,22.50
2022-09-04T19:27:28.160Z,22.50
2022-09-04T19:30:18.393Z,22.40
2022-09-04T19:33:04.288Z,22.40
2022-09-04T19:35:38.254Z,22.30
2022-09-04T19:43:34.429Z,22.30
2022-09-04T19:46:01.905Z,22.30
2022-09-04T19:46:26.161Z,22.30
2022-09-04T19:47:00.498Z,22.20
2022-09-04T19:52:06.339Z,22.10
2022-09-04T19:53:35.738Z,22.10
2022-09-04T19:55:36.029Z,22.00
2022-09-04T19:58:09.775Z,22.00
2022-09-04T20:00:44.475Z,22.00
2022-09-04T20:03:29.328Z,22.00
2022-09-04T20:06:21.192Z,21.90
2022-09-04T20:08:55.699Z,21.90
2022-09-04T20:11:35.165Z,21.90
2022-09-04T20:14:14.033Z,21.90
2022-09-04T20:16:49.350Z,21.90
2022-09-04T20:19:27.863Z,21.80
2022-09-04T20:22:01.142Z,21.80
2022-09-04T20:24:39.582Z,21.80
2022-09-04T20:27:15.710Z,21.80
2022-09-04T20:29:52.404Z,21.70
2022-09-04T20:32:26.592Z,21.60
2022-09-04T20:34:59.144Z,21.60
2022-09-04T20:37:45.737Z,21.50
2022-09-04T20:40:24.984Z,21.50
2022-09-04T20:43:11.288Z,21.50
2022-09-04T20:50:12.375Z,21.50
2022-09-04T20:52:50.938Z,21.40
2022-09-04T20:52:52.232Z,21.40
2022-09-04T20:54:39.586Z,21.40
2022-09-04T20:59:48.392Z,21.40
2022-09-04T21:03:24.716Z,21.40
2022-09-04T21:03:28.252Z,21.40
2022-09-04T21:06:13.999Z,21.30
2022-09-04T21:08:49.004Z,21.30
2022-09-04T21:11:39.344Z,21.30
2022-09-04T21:14:15.095Z,21.30
2022-09-04T21:17:02.859Z,21.30
2022-09-04T21:20:32.985Z,21.30
2022-09-04T21:23:21.728Z,21.30
2022-09-04T21:25:58.537Z,21.30
2022-09-04T21:28:43.576Z,21.20
2022-09-04T21:31:23.351Z,21.20
2022-09-04T21:34:09.106Z,21.10
2022-09-04T21:36:42.419Z,21.10
2022-09-04T21:39:38.009Z,21.10
2022-09-04T21:42:33.039Z,21.00
2022-09-04T21:45:23.549Z,21.00
2022-09-04T21:48:06.721Z,20.90
2022-09-04T21:51:01.166Z,20.90
2022-09-04T21:54:04.818Z,20.80
2022-09-04T22:02:26.697Z,20.80
2022-09-04T22:02:37.798Z,20.80
2022-09-04T22:03:30.071Z,20.80
2022-09-04T22:06:11.573Z,20.80
2022-09-04T22:13:27.468Z,20.80
2022-09-04T22:13:41.989Z,20.70
2022-09-04T22:14:51.574Z,20.70
2022-09-04T22:17:41.362Z,20.60
2022-09-04T22:20:22.043Z,20.60
2022-09-04T22:23:20.316Z,20.60
2022-09-04T22:26:09.972Z,20.60
2022-09-04T22:29:02.039Z,20.50
2022-09-04T22:32:02.927Z,20.50
2022-09-04T22:35:03.609Z,20.50
2022-09-04T22:37:56.832Z,20.40
2022-09-04T22:40:37.544Z,20.30
2022-09-04T22:43:23.380Z,20.30
2022-09-04T22:46:29.828Z,20.30
2022-09-04T22:49:29.017Z,20.30
2022-09-04T22:52:15.307Z,20.30
2022-09-04T22:54:57.075Z,20.30
2022-09-04T22:57:43.850Z,20.20
2022-09-04T23:00:16.281Z,20.20
2022-09-04T23:03:12.155Z,20.20
2022-09-04T23:06:56.429Z,20.20
2022-09-04T23:13:48.524Z,20.00
2022-09-04T23:13:50.737Z,20.10
2022-09-04T23:15:35.434Z,20.00
2022-09-04T23:20:41.145Z,19.90
2022-09-04T23:26:47.562Z,19.90
2022-09-04T23:26:48.838Z,19.90
2022-09-04T23:28:02.526Z,19.90
2022-09-04T23:31:01.112Z,19.90
2022-09-04T23:33:49.526Z,19.90
2022-09-04T23:36:46.594Z,19.90
2022-09-04T23:39:49.475Z,19.80
2022-09-04T23:42:41.636Z,19.80
2022-09-04T23:45:25.110Z,19.80
2022-09-04T23:48:07.128Z,19.80
2022-09-04T23:50:48.149Z,19.70
2022-09-04T23:53:25.989Z,19.70
2022-09-04T23:56:08.185Z,19.60
2022-09-04T23:59:23.839Z,19.50
